Okeechobee, FL

9:38 PM EST on November 21, 2017 (GMT -0500)
Okeechobee County

Weather History for KOBE - December, 2012

Change the Weather History Date:

Saturday, December 29, 2012

  Actual Average Record
Temperature  
Mean Temperature 66 °F -  
Max Temperature 82 °F 74 °F 84 °F (2007)
Min Temperature 51 °F 53 °F 30 °F (2010)
Cooling Degree Days 2    
Growing Degree Days 16 (Base 50)    
Moisture  
Dew Point 64 °F    
Average Humidity 85    
Maximum Humidity 100    
Minimum Humidity 58    
Precipitation  
Precipitation 0.00 in - - ()
Sea Level Pressure  
Sea Level Pressure 29.99 in    
Wind  
Wind Speed 11 mph (SW)    
Max Wind Speed 24 mph    
Max Gust Speed 32 mph    
Visibility 8 miles    
Events Rain    
Averages and records for this station are not official NWS values.
T = Trace of Precipitation, MM = Missing Value Source: NWS Daily Summary

Daily Weather History Graph

Daily Weather History Graph

Search for Another Location

Airport or City:

Trip Planner

Search our weather history database for the weather conditions in past years. The results will help you decide how hot, cold, wet, or windy it might be!

Date:

Astronomy

Dec. 29, 2012 Rise Set
Actual Time 7:12 AM EST 5:39 PM EST
Civil Twilight 6:46 AM EST 6:04 PM EST
Nautical Twilight 6:17 AM EST 6:33 PM EST
Astronomical Twilight 5:49 AM EST 7:02 PM EST
Moon 7:01 PM EST (12/29) 7:52 AM EST (12/29)
Length of Visible Light 11h 17m
Length of Day
10h 26m
Full, 98% of the Moon is Illuminated
Dec 29
Full
Jan 4
Last Quarter
Jan 11
New
Jan 18
First Quarter
Jan 26
Full

Hourly Weather History & Observations

Time (EST) Temp. Heat Index Dew Point Humidity Pressure Visibility Wind Dir Wind Speed Gust Speed Precip Events Conditions
12:15 AM 68.0 °F - 66.2 °F 94% 29.98 in 5.0 mi SE 6.9 mph - N/A   Overcast
12:35 AM 68.0 °F - 66.2 °F 94% 29.98 in 5.0 mi SSE 8.1 mph - N/A   Overcast
12:55 AM 68.0 °F - 66.2 °F 94% 29.97 in 5.0 mi SE 6.9 mph - N/A   Overcast
1:15 AM 68.0 °F - 66.2 °F 94% 29.96 in 5.0 mi SE 9.2 mph - N/A   Overcast
1:35 AM 68.0 °F - 66.2 °F 94% 29.96 in 5.0 mi SSE 8.1 mph - N/A   Overcast
1:55 AM 68.0 °F - 66.2 °F 94% 29.96 in 7.0 mi SSE 8.1 mph - N/A Rain Rain
2:15 AM 68.0 °F - 66.2 °F 94% 29.95 in 7.0 mi SSE 8.1 mph - N/A   Mostly Cloudy
2:35 AM 68.0 °F - 66.2 °F 94% 29.94 in 7.0 mi SSE 8.1 mph - N/A   Mostly Cloudy
2:55 AM 68.0 °F - 66.2 °F 94% 29.94 in 5.0 mi SSE 6.9 mph - N/A   Mostly Cloudy
3:15 AM 66.2 °F - 66.2 °F 100% 29.95 in 5.0 mi SSE 6.9 mph - N/A   Scattered Clouds
3:35 AM 66.2 °F - 66.2 °F 100% 29.94 in 5.0 mi SSE 6.9 mph - N/A   Mostly Cloudy
3:55 AM 68.0 °F - 66.2 °F 94% 29.94 in 5.0 mi South 6.9 mph - N/A   Scattered Clouds
4:15 AM 66.2 °F - 66.2 °F 100% 29.94 in 5.0 mi SSE 6.9 mph - N/A   Scattered Clouds
4:35 AM 68.0 °F - 66.2 °F 94% 29.93 in 5.0 mi South 8.1 mph - N/A   Clear
4:55 AM 66.2 °F - 66.2 °F 100% 29.93 in 5.0 mi South 10.4 mph - N/A   Scattered Clouds
5:15 AM 68.0 °F - 66.2 °F 94% 29.93 in 5.0 mi South 11.5 mph 17.3 mph N/A   Mostly Cloudy
5:35 AM 68.0 °F - 68.0 °F 100% 29.94 in 5.0 mi South 10.4 mph 17.3 mph N/A   Overcast
5:55 AM 68.0 °F - 68.0 °F 100% 29.95 in 7.0 mi South 12.7 mph 17.3 mph N/A   Overcast
6:15 AM 68.0 °F - 68.0 °F 100% 29.97 in 7.0 mi South 12.7 mph 18.4 mph N/A   Overcast
6:35 AM 68.0 °F - 68.0 °F 100% 29.98 in 3.0 mi South 12.7 mph 17.3 mph N/A   Overcast
6:55 AM 68.0 °F - 68.0 °F 100% 29.99 in 4.0 mi South 11.5 mph 17.3 mph N/A   Overcast
7:15 AM 69.8 °F - 68.0 °F 94% 29.99 in 5.0 mi South 12.7 mph - N/A   Overcast
7:35 AM 69.8 °F - 68.0 °F 94% 29.99 in 5.0 mi SSW 10.4 mph - N/A   Overcast
7:55 AM 69.8 °F - 68.0 °F 94% 29.99 in 5.0 mi South 9.2 mph - N/A   Overcast
8:35 AM 69.8 °F - 69.8 °F 100% 30.00 in 5.0 mi South 10.4 mph - N/A   Overcast
8:55 AM 69.8 °F - 69.8 °F 100% 30.01 in 5.0 mi South 9.2 mph - N/A   Overcast
9:15 AM 69.8 °F - 69.8 °F 100% 30.01 in 5.0 mi South 10.4 mph 17.3 mph N/A   Overcast
9:35 AM 69.8 °F - 69.8 °F 100% 30.02 in 5.0 mi SSW 10.4 mph - N/A   Overcast
9:55 AM 69.8 °F - 69.8 °F 100% 30.02 in 4.0 mi SSW 9.2 mph - N/A   Overcast
10:15 AM 71.6 °F - 69.8 °F 94% 30.04 in 7.0 mi SW 13.8 mph 17.3 mph N/A   Overcast
10:35 AM 73.4 °F - 71.6 °F 94% 30.03 in 10.0 mi SSW 11.5 mph 17.3 mph N/A   Mostly Cloudy
10:55 AM 77.0 °F - 71.6 °F 83% 30.02 in 10.0 mi SSW 15.0 mph 20.7 mph N/A   Mostly Cloudy
11:15 AM 77.0 °F - 71.6 °F 83% 30.01 in 10.0 mi SSW 13.8 mph 19.6 mph N/A   Overcast
11:35 AM 78.8 °F - 69.8 °F 74% 30.01 in 10.0 mi SW 18.4 mph - N/A   Mostly Cloudy
11:55 AM 78.8 °F - 69.8 °F 74% 30.00 in 10.0 mi SW 18.4 mph 25.3 mph N/A   Mostly Cloudy
12:15 PM 80.6 °F 83.2 °F 68.0 °F 65% 29.98 in 10.0 mi SSW 16.1 mph 25.3 mph N/A   Mostly Cloudy
12:35 PM 78.8 °F - 66.2 °F 65% 29.97 in 10.0 mi SW 19.6 mph 28.8 mph N/A   Mostly Cloudy
12:55 PM 80.6 °F 82.7 °F 66.2 °F 61% 29.95 in 10.0 mi SSW 24.2 mph 29.9 mph N/A   Scattered Clouds
1:15 PM 80.6 °F 83.2 °F 68.0 °F 65% 29.95 in 10.0 mi SW 18.4 mph 28.8 mph N/A   Mostly Cloudy
1:35 PM 80.6 °F 83.2 °F 68.0 °F 65% 29.94 in 10.0 mi SW 24.2 mph 29.9 mph N/A   Overcast
1:55 PM 82.4 °F 84.6 °F 66.2 °F 58% 29.94 in 10.0 mi SW 21.9 mph 32.2 mph N/A   Scattered Clouds
2:15 PM 80.6 °F 82.7 °F 66.2 °F 61% 29.93 in 10.0 mi WSW 20.7 mph 26.5 mph N/A   Scattered Clouds
2:35 PM 78.8 °F - 68.0 °F 69% 29.92 in 10.0 mi SW 19.6 mph 25.3 mph N/A   Mostly Cloudy
2:55 PM 80.6 °F 83.2 °F 68.0 °F 65% 29.92 in 10.0 mi WSW 20.7 mph 27.6 mph N/A   Mostly Cloudy
3:15 PM 80.6 °F 82.3 °F 64.4 °F 58% 29.92 in 10.0 mi WSW 23.0 mph 31.1 mph N/A   Mostly Cloudy
3:35 PM 78.8 °F - 66.2 °F 65% 29.93 in 10.0 mi SW 21.9 mph - N/A   Mostly Cloudy
3:55 PM 77.0 °F - 66.2 °F 69% 29.93 in 10.0 mi WSW 15.0 mph 21.9 mph N/A   Mostly Cloudy
4:15 PM 77.0 °F - 68.0 °F 74% 29.93 in 10.0 mi WSW 12.7 mph 16.1 mph N/A   Overcast
4:35 PM 77.0 °F - 68.0 °F 74% 29.93 in 10.0 mi WSW 16.1 mph - N/A   Overcast
4:55 PM 77.0 °F - 68.0 °F 74% 29.94 in 10.0 mi West 8.1 mph 18.4 mph N/A   Mostly Cloudy
5:15 PM 75.2 °F - 68.0 °F 78% 29.95 in 10.0 mi West 10.4 mph - N/A   Clear
5:35 PM 73.4 °F - 68.0 °F 83% 29.95 in 7.0 mi West 10.4 mph - N/A   Clear
5:55 PM 71.6 °F - 64.4 °F 78% 29.96 in 7.0 mi West 10.4 mph 16.1 mph N/A   Clear
6:15 PM 71.6 °F - 62.6 °F 73% 29.97 in 10.0 mi West 9.2 mph - N/A   Clear
6:35 PM 69.8 °F - 62.6 °F 78% 29.99 in 10.0 mi WNW 9.2 mph - N/A   Clear
6:55 PM 68.0 °F - 59.0 °F 73% 30.00 in 10.0 mi West 12.7 mph - N/A   Clear
7:15 PM 66.2 °F - 59.0 °F 78% 30.01 in 10.0 mi West 10.4 mph - N/A   Clear
7:35 PM 64.4 °F - 59.0 °F 83% 30.03 in 10.0 mi West 8.1 mph - N/A   Clear
7:55 PM 62.6 °F - 59.0 °F 88% 30.04 in 10.0 mi West 5.8 mph - N/A   Clear
8:15 PM 62.6 °F - 57.2 °F 82% 30.05 in 10.0 mi West 9.2 mph - N/A   Clear
8:35 PM 60.8 °F - 55.4 °F 82% 30.06 in 10.0 mi West 6.9 mph - N/A   Clear
8:55 PM 60.8 °F - 55.4 °F 82% 30.07 in 10.0 mi West 8.1 mph - N/A   Clear
9:15 PM 59.0 °F - 53.6 °F 82% 30.09 in 10.0 mi West 8.1 mph - N/A   Clear
9:35 PM 57.2 °F - 53.6 °F 88% 30.09 in 10.0 mi West 11.5 mph - N/A   Clear
9:55 PM 55.4 °F - 51.8 °F 88% 30.10 in 10.0 mi WNW 10.4 mph - N/A   Clear
10:15 PM 55.4 °F - 50.0 °F 82% 30.11 in 10.0 mi WNW 10.4 mph - N/A   Clear
10:35 PM 55.4 °F - 50.0 °F 82% 30.12 in 10.0 mi WNW 10.4 mph 16.1 mph N/A   Clear
10:55 PM 53.6 °F - 50.0 °F 88% 30.13 in 10.0 mi WNW 10.4 mph - N/A   Clear
11:15 PM 53.6 °F - 50.0 °F 88% 30.14 in 10.0 mi West 10.4 mph - N/A   Clear
11:35 PM 51.8 °F - 50.0 °F 94% 30.14 in 10.0 mi WNW 9.2 mph - N/A   Clear
11:55 PM 51.8 °F - 48.2 °F 88% 30.15 in 10.0 mi WNW 8.1 mph - N/A   Clear